createdAt,value
2023-01-17T00:02:12.111Z,11.33
2023-01-17T00:04:59.909Z,10.67
2023-01-17T00:07:49.866Z,12.10
2023-01-17T00:10:20.266Z,9.80
2023-01-17T00:12:52.042Z,9.03
2023-01-17T00:15:23.368Z,12.60
2023-01-17T00:17:53.303Z,10.30
2023-01-17T00:20:43.414Z,12.00
2023-01-17T00:23:34.011Z,12.27
2023-01-17T00:26:05.829Z,11.53
2023-01-17T00:28:35.632Z,12.20
2023-01-17T00:31:04.021Z,10.20
2023-01-17T00:33:31.583Z,8.97
2023-01-17T00:36:01.546Z,11.33
2023-01-17T00:38:30.917Z,11.80
2023-01-17T00:41:03.282Z,11.37
2023-01-17T00:43:50.034Z,10.63
2023-01-17T00:46:36.412Z,9.73
2023-01-17T00:49:23.121Z,13.23
2023-01-17T00:52:10.686Z,12.40
2023-01-17T00:54:56.696Z,14.30
2023-01-17T00:57:43.895Z,16.17
2023-01-17T01:00:31.071Z,15.33
2023-01-17T01:03:16.847Z,12.87
2023-01-17T01:06:02.646Z,13.90
2023-01-17T01:08:49.969Z,16.60
2023-01-17T01:11:39.989Z,15.73
2023-01-17T01:14:28.560Z,15.23
2023-01-17T01:17:14.726Z,15.50
2023-01-17T01:20:01.062Z,11.53
2023-01-17T01:22:47.287Z,14.37
2023-01-17T01:25:35.153Z,13.03
2023-01-17T01:28:30.663Z,11.77
2023-01-17T01:31:18.683Z,11.83
2023-01-17T01:33:47.988Z,12.87
2023-01-17T01:36:17.431Z,11.07
2023-01-17T01:38:47.087Z,11.37
2023-01-17T01:41:17.820Z,11.20
2023-01-17T01:43:48.687Z,11.60
2023-01-17T01:46:24.791Z,12.27
2023-01-17T01:48:57.948Z,9.93
2023-01-17T01:51:33.957Z,8.80
2023-01-17T01:54:09.243Z,12.07
2023-01-17T01:56:41.135Z,10.27
2023-01-17T01:59:12.892Z,9.00
2023-01-17T02:01:42.244Z,8.80
2023-01-17T02:04:12.349Z,10.07
2023-01-17T02:06:45.101Z,10.40
2023-01-17T02:09:16.465Z,9.83
2023-01-17T02:11:48.363Z,9.93
2023-01-17T02:14:18.280Z,8.93
2023-01-17T02:16:57.384Z,8.50
2023-01-17T02:19:55.854Z,8.00
2023-01-17T02:22:50.807Z,7.93
2023-01-17T02:25:49.938Z,9.97
2023-01-17T02:28:35.268Z,9.67
2023-01-17T02:31:13.064Z,9.23
2023-01-17T02:33:49.209Z,10.20
2023-01-17T02:36:24.680Z,8.93
2023-01-17T02:38:59.068Z,8.80
2023-01-17T02:41:32.226Z,9.00
2023-01-17T02:44:02.778Z,7.93
2023-01-17T02:46:32.907Z,7.67
2023-01-17T02:49:01.972Z,8.13
2023-01-17T02:51:45.520Z,7.17
2023-01-17T02:54:49.770Z,8.43
2023-01-17T02:57:34.657Z,9.97
2023-01-17T03:00:09.118Z,9.37
2023-01-17T03:02:45.549Z,9.30
2023-01-17T03:05:20.420Z,8.37
2023-01-17T03:07:50.346Z,7.67
2023-01-17T03:10:20.724Z,8.67
2023-01-17T03:12:49.383Z,9.77
2023-01-17T03:15:18.814Z,10.33
2023-01-17T03:17:51.624Z,8.43
2023-01-17T03:20:22.479Z,8.37
2023-01-17T03:22:51.161Z,13.03
2023-01-17T03:25:19.482Z,8.57
2023-01-17T03:27:47.918Z,8.93
2023-01-17T03:30:17.679Z,7.73
2023-01-17T03:32:46.027Z,7.83
2023-01-17T03:35:16.069Z,9.73
2023-01-17T03:37:44.654Z,9.80
2023-01-17T03:40:13.414Z,8.83
2023-01-17T03:42:41.850Z,9.37
2023-01-17T03:45:11.229Z,9.30
2023-01-17T03:47:39.601Z,10.97
2023-01-17T03:50:08.292Z,9.43
2023-01-17T03:52:39.524Z,9.53
2023-01-17T03:55:09.537Z,7.27
2023-01-17T03:57:41.135Z,7.73
2023-01-17T04:00:11.301Z,9.67
2023-01-17T04:02:39.664Z,8.50
2023-01-17T04:07:33.904Z,9.83
2023-01-17T04:10:03.673Z,9.27
2023-01-17T04:12:31.955Z,9.43
2023-01-17T04:15:00.235Z,8.03
2023-01-17T04:17:33.935Z,8.93
2023-01-17T04:20:02.222Z,8.30
2023-01-17T04:22:31.559Z,8.40
2023-01-17T04:25:00.981Z,6.40
2023-01-17T04:27:31.253Z,7.57
2023-01-17T04:29:59.596Z,6.33
2023-01-17T04:32:29.263Z,6.23
2023-01-17T04:34:57.599Z,7.83
2023-01-17T04:37:25.975Z,5.67
2023-01-17T04:39:54.564Z,3.27
2023-01-17T04:42:22.972Z,3.23
2023-01-17T04:44:52.811Z,3.90
2023-01-17T04:47:21.169Z,5.20
2023-01-17T04:49:49.562Z,3.67
2023-01-17T04:52:18.765Z,2.90
2023-01-17T04:54:49.579Z,3.60
2023-01-17T04:57:18.588Z,3.40
2023-01-17T04:59:47.735Z,2.67
2023-01-17T05:02:17.503Z,3.73
2023-01-17T05:04:46.234Z,4.87
2023-01-17T05:07:15.255Z,3.27
2023-01-17T05:09:44.972Z,3.67
2023-01-17T05:12:16.036Z,4.10
2023-01-17T05:14:47.483Z,5.73
2023-01-17T05:17:17.790Z,5.63
2023-01-17T05:19:46.355Z,4.67
2023-01-17T05:22:16.019Z,3.73
2023-01-17T05:24:44.619Z,3.67
2023-01-17T05:27:13.619Z,4.60
2023-01-17T05:29:42.236Z,5.60
2023-01-17T05:32:10.777Z,5.87
2023-01-17T05:34:40.875Z,4.57
2023-01-17T05:37:09.372Z,5.67
2023-01-17T05:39:37.707Z,10.90
2023-01-17T05:42:06.227Z,11.93
2023-01-17T05:44:34.729Z,8.70
2023-01-17T05:47:03.092Z,5.27
2023-01-17T05:49:31.498Z,4.20
2023-01-17T05:52:07.499Z,6.60
2023-01-17T05:54:35.839Z,5.77
2023-01-17T05:57:04.181Z,4.90
2023-01-17T05:59:37.490Z,4.97
2023-01-17T06:02:06.044Z,6.20
2023-01-17T06:04:34.612Z,9.43
2023-01-17T06:07:04.432Z,4.67
2023-01-17T06:09:32.770Z,5.73
2023-01-17T06:12:01.049Z,2.63
2023-01-17T06:14:29.325Z,4.30
2023-01-17T06:16:57.586Z,4.00
2023-01-17T06:19:25.987Z,3.83
2023-01-17T06:21:54.279Z,7.57
2023-01-17T06:24:23.933Z,17.30
2023-01-17T06:26:52.317Z,7.73
2023-01-17T06:29:20.733Z,9.37
2023-01-17T06:31:49.155Z,17.80
2023-01-17T06:34:17.473Z,21.13
2023-01-17T06:36:46.076Z,17.77
2023-01-17T06:39:15.191Z,8.10
2023-01-17T06:41:44.976Z,8.47
2023-01-17T06:44:13.462Z,11.40
2023-01-17T22:32:43.672Z,15.23
2023-01-17T22:35:13.653Z,12.97
2023-01-17T22:37:41.949Z,14.97
2023-01-17T22:40:12.457Z,14.57
2023-01-17T22:42:40.849Z,14.07
2023-01-17T22:45:10.405Z,22.00
2023-01-17T22:47:38.846Z,14.90
2023-01-17T22:50:09.047Z,11.73
2023-01-17T22:52:38.678Z,10.40
2023-01-17T22:55:07.597Z,10.37
2023-01-17T22:57:35.997Z,10.87
2023-01-17T23:00:14.393Z,8.43
2023-01-17T23:02:43.225Z,12.83
2023-01-17T23:05:11.910Z,8.97
2023-01-17T23:07:44.291Z,10.57
2023-01-17T23:10:34.636Z,9.33
2023-01-17T23:13:03.020Z,7.27
2023-01-17T23:15:48.764Z,7.60
2023-01-17T23:18:34.739Z,8.33
2023-01-17T23:21:03.150Z,7.37
2023-01-17T23:23:33.261Z,6.40
2023-01-17T23:26:02.192Z,5.33
2023-01-17T23:28:29.460Z,7.03
2023-01-17T23:31:03.593Z,5.43
2023-01-17T23:33:31.894Z,5.27
2023-01-17T23:36:00.338Z,6.03
2023-01-17T23:38:29.431Z,7.27
2023-01-17T23:41:21.797Z,6.53
2023-01-17T23:43:53.618Z,5.77
2023-01-17T23:46:22.512Z,6.73
2023-01-17T23:48:51.056Z,6.43
2023-01-17T23:51:19.543Z,5.47
2023-01-17T23:53:47.816Z,7.37
2023-01-17T23:56:20.566Z,8.73
2023-01-17T23:58:49.048Z,5.77
